createdAt,value
2018-02-05T00:01:33.229Z,80.70
2018-02-05T00:04:00.771Z,80.60
2018-02-05T00:06:29.061Z,80.50
2018-02-05T00:08:56.579Z,80.40
2018-02-05T00:11:24.087Z,80.70
2018-02-05T00:13:51.617Z,81.00
2018-02-05T00:16:19.125Z,81.00
2018-02-05T00:18:46.643Z,80.90
2018-02-05T00:21:14.169Z,80.80
2018-02-05T00:23:41.675Z,80.90
2018-02-05T00:26:09.195Z,80.70
2018-02-05T00:28:36.764Z,80.60
2018-02-05T00:31:04.278Z,80.70
2018-02-05T00:33:31.801Z,80.80
2018-02-05T00:35:59.347Z,81.00
2018-02-05T00:38:26.853Z,81.10
2018-02-05T00:40:54.363Z,80.90
2018-02-05T00:43:21.891Z,80.40
2018-02-05T00:45:49.406Z,80.50
2018-02-05T00:48:16.916Z,80.30
2018-02-05T00:50:44.451Z,79.90
2018-02-05T00:53:11.979Z,79.90
2018-02-05T00:55:39.493Z,79.90
2018-02-05T00:58:07.013Z,80.50
2018-02-05T01:00:34.518Z,80.20
2018-02-05T01:03:02.039Z,79.70
2018-02-05T01:05:29.579Z,79.50
2018-02-05T01:07:57.087Z,79.20
2018-02-05T01:10:24.594Z,79.30
2018-02-05T01:12:52.133Z,79.50
2018-02-05T01:15:19.644Z,79.40
2018-02-05T01:17:47.154Z,78.90
2018-02-05T01:20:15.443Z,79.20
2018-02-05T01:22:43.012Z,79.20
2018-02-05T01:25:10.495Z,79.10
2018-02-05T01:27:38.019Z,79.10
2018-02-05T01:30:05.541Z,79.70
2018-02-05T01:32:33.047Z,80.10
2018-02-05T01:35:00.559Z,80.20
2018-02-05T01:37:28.088Z,79.80
2018-02-05T01:39:55.625Z,79.70
2018-02-05T01:42:23.143Z,79.90
2018-02-05T01:44:50.645Z,80.10
2018-02-05T01:47:18.161Z,80.10
2018-02-05T01:49:45.681Z,80.00
2018-02-05T01:52:13.183Z,80.00
2018-02-05T01:54:40.686Z,80.40
2018-02-05T01:57:08.235Z,81.30
2018-02-05T01:59:35.738Z,81.00
2018-02-05T02:02:03.247Z,81.20
2018-02-05T02:04:30.756Z,80.30
2018-02-05T02:06:58.263Z,79.80
2018-02-05T02:09:25.789Z,80.40
2018-02-05T02:11:53.322Z,80.30
2018-02-05T02:14:20.838Z,80.10
2018-02-05T02:16:48.353Z,79.70
2018-02-05T02:19:15.879Z,79.60
2018-02-05T02:21:43.383Z,79.80
2018-02-05T02:24:10.891Z,80.40
2018-02-05T02:26:38.401Z,79.90
2018-02-05T02:29:05.913Z,79.80
2018-02-05T02:31:33.419Z,79.60
2018-02-05T02:34:00.953Z,80.10
2018-02-05T02:36:28.454Z,80.30
2018-02-05T02:38:56.754Z,80.90
2018-02-05T02:41:24.277Z,80.80
2018-02-05T02:43:51.783Z,80.90
2018-02-05T02:46:19.291Z,81.10
2018-02-05T02:48:46.816Z,81.40
2018-02-05T02:51:14.339Z,81.90
2018-02-05T02:53:41.851Z,82.00
2018-02-05T02:56:09.375Z,81.70
2018-02-05T02:58:36.883Z,81.00
2018-02-05T03:01:04.407Z,80.70
2018-02-05T03:03:31.933Z,80.90
2018-02-05T03:05:59.462Z,81.10
2018-02-05T03:08:26.966Z,81.60
2018-02-05T03:10:54.497Z,81.90
2018-02-05T03:13:22.015Z,81.90
2018-02-05T03:15:49.541Z,81.10
2018-02-05T03:18:17.067Z,80.30
2018-02-05T03:20:45.342Z,80.30
2018-02-05T03:23:13.632Z,80.70
2018-02-05T03:25:41.161Z,80.50
2018-02-05T03:28:08.671Z,80.60
2018-02-05T03:30:36.163Z,81.00
2018-02-05T03:33:03.677Z,81.00
2018-02-05T03:35:31.191Z,80.20
2018-02-05T03:37:58.718Z,80.60
2018-02-05T03:40:26.233Z,80.70
2018-02-05T03:42:54.509Z,80.60
2018-02-05T03:45:22.801Z,80.80
2018-02-05T03:47:50.315Z,80.60
2018-02-05T03:50:17.823Z,80.50
2018-02-05T03:52:45.323Z,80.00
2018-02-05T03:55:12.849Z,79.60
2018-02-05T03:57:40.355Z,79.90
2018-02-05T04:00:07.859Z,79.40
2018-02-05T04:02:35.435Z,79.60
2018-02-05T04:05:03.660Z,80.60
2018-02-05T04:07:31.172Z,80.50
2018-02-05T04:09:58.689Z,80.70
2018-02-05T04:12:26.200Z,80.50
2018-02-05T04:14:53.719Z,80.00
2018-02-05T04:17:21.237Z,80.10
2018-02-05T04:19:48.737Z,79.70
2018-02-05T04:22:16.287Z,80.10
2018-02-05T04:24:44.596Z,81.40
2018-02-05T04:27:12.109Z,81.30
2018-02-05T04:29:40.374Z,82.10
2018-02-05T04:32:07.889Z,82.00
2018-02-05T04:34:35.398Z,81.80
2018-02-05T04:37:02.896Z,81.30
2018-02-05T04:39:30.415Z,81.20
2018-02-05T04:41:57.929Z,80.80
2018-02-05T04:44:25.438Z,79.80
2018-02-05T04:46:53.726Z,80.30
2018-02-05T04:49:21.992Z,81.00
2018-02-05T04:51:50.259Z,81.50
2018-02-05T04:54:17.779Z,81.40
2018-02-05T04:56:45.288Z,81.50
2018-02-05T04:59:12.795Z,81.60
2018-02-05T05:01:40.322Z,82.00
2018-02-05T05:04:07.844Z,82.30
2018-02-05T05:06:35.350Z,82.40
2018-02-05T05:09:02.932Z,82.30
2018-02-05T05:11:30.441Z,82.30
2018-02-05T05:13:57.951Z,82.30
2018-02-05T05:16:25.473Z,82.10
2018-02-05T05:18:53.003Z,82.60
2018-02-05T05:21:20.502Z,81.80
2018-02-05T05:23:48.039Z,81.70
2018-02-05T05:26:16.340Z,81.50
2018-02-05T05:28:43.876Z,81.50
2018-02-05T05:31:11.421Z,81.60
2018-02-05T05:33:39.736Z,81.70
2018-02-05T05:36:07.296Z,81.50
2018-02-05T05:38:34.846Z,81.40
2018-02-05T05:41:02.384Z,81.60
2018-02-05T05:43:29.920Z,81.60
2018-02-05T05:45:57.454Z,81.30
2018-02-05T05:48:24.965Z,81.30
2018-02-05T05:50:53.258Z,81.10
2018-02-05T05:53:20.772Z,81.00
2018-02-05T05:55:48.304Z,81.00
2018-02-05T05:58:15.803Z,80.70
2018-02-05T06:00:43.708Z,81.20
2018-02-05T06:03:11.207Z,81.20
2018-02-05T06:05:38.725Z,81.10
2018-02-05T06:08:06.241Z,81.00
2018-02-05T06:10:33.767Z,80.90
2018-02-05T06:13:01.276Z,80.80
2018-02-05T06:15:29.560Z,80.40
2018-02-05T06:17:57.828Z,80.00
2018-02-05T06:20:26.105Z,80.00
2018-02-05T06:22:54.399Z,79.90
2018-02-05T06:25:21.920Z,79.70
2018-02-05T06:27:49.414Z,79.90
2018-02-05T06:30:17.704Z,80.10
2018-02-05T06:32:45.212Z,79.90
2018-02-05T06:35:12.738Z,79.40
2018-02-05T06:37:40.254Z,79.00
2018-02-05T06:40:08.524Z,79.80
2018-02-05T06:42:36.800Z,80.00
2018-02-05T06:45:04.351Z,79.80
2018-02-05T06:47:32.660Z,80.00
2018-02-05T06:50:00.186Z,80.00
2018-02-05T06:52:39.526Z,80.40
2018-02-05T06:58:06.246Z,80.50
2018-02-05T07:00:34.051Z,80.70
2018-02-05T07:03:01.720Z,80.50
2018-02-05T07:05:29.338Z,80.20
2018-02-05T07:07:56.996Z,80.10
2018-02-05T07:10:24.660Z,80.60
2018-02-05T07:12:52.209Z,81.00
2018-02-05T07:15:19.766Z,80.70
2018-02-05T07:17:47.306Z,81.00
2018-02-05T07:20:14.870Z,80.90
2018-02-05T07:22:42.412Z,81.00
2018-02-05T07:25:09.953Z,81.40
2018-02-05T07:27:38.260Z,81.90
2018-02-05T07:30:05.876Z,81.90
2018-02-05T07:32:33.407Z,82.10
2018-02-05T07:35:00.958Z,82.20
2018-02-05T07:37:28.476Z,82.20
2018-02-05T07:39:56.790Z,82.20
2018-02-05T07:42:24.334Z,82.20
2018-02-05T07:44:51.862Z,82.50
2018-02-05T07:47:20.166Z,82.30
2018-02-05T07:49:47.724Z,82.30
2018-02-05T07:52:15.276Z,82.20
2018-02-05T07:54:42.802Z,82.10
2018-02-05T07:57:10.376Z,82.00
2018-02-05T07:59:38.656Z,82.00
2018-02-05T08:02:06.996Z,81.90
2018-02-05T08:04:34.494Z,81.90
2018-02-05T08:07:01.996Z,82.00
2018-02-05T08:09:29.516Z,82.00
2018-02-05T08:11:57.824Z,82.10
2018-02-05T08:14:25.352Z,82.10
2018-02-05T08:16:52.884Z,82.20
2018-02-05T08:19:20.423Z,82.10
2018-02-05T08:21:47.944Z,82.00
2018-02-05T08:24:15.467Z,82.10
2018-02-05T08:26:43.005Z,82.00
2018-02-05T08:29:10.524Z,81.80
2018-02-05T08:31:38.046Z,81.80
2018-02-05T08:34:06.344Z,81.90
2018-02-05T08:36:33.860Z,81.70
2018-02-05T08:39:01.385Z,81.60
2018-02-05T08:41:28.922Z,81.30
2018-02-05T08:43:56.458Z,81.50
2018-02-05T08:46:23.964Z,81.50
2018-02-05T08:48:51.480Z,81.40
2018-02-05T08:51:18.994Z,81.30
2018-02-05T08:53:46.512Z,81.20
2018-02-05T08:56:14.810Z,81.40
2018-02-05T08:58:42.328Z,81.30
2018-02-05T09:01:09.856Z,81.10
2018-02-05T09:03:37.388Z,80.80
2018-02-05T09:06:04.908Z,80.70
2018-02-05T09:08:32.417Z,80.80
2018-02-05T09:10:59.936Z,80.50
2018-02-05T09:13:27.438Z,80.60
2018-02-05T09:15:54.948Z,80.20
2018-02-05T09:18:23.250Z,79.60
2018-02-05T09:20:50.905Z,79.60
2018-02-05T09:23:18.420Z,79.20
2018-02-05T09:25:45.960Z,79.30
2018-02-05T09:28:13.479Z,79.20
2018-02-05T09:30:41.020Z,79.00
2018-02-05T09:33:08.537Z,79.20
2018-02-05T09:35:36.064Z,79.50
2018-02-05T09:38:03.612Z,80.00
2018-02-05T09:40:31.892Z,80.20
2018-02-05T09:42:59.420Z,80.20
2018-02-05T09:45:26.964Z,80.10
2018-02-05T09:47:54.487Z,79.40
2018-02-05T09:50:22.039Z,79.60
2018-02-05T09:52:49.605Z,79.80
2018-02-05T09:55:17.114Z,79.90
2018-02-05T09:57:44.624Z,79.60
2018-02-05T10:00:12.164Z,79.70
2018-02-05T10:02:39.676Z,80.10
2018-02-05T10:05:07.173Z,79.60
2018-02-05T10:07:35.460Z,78.30
2018-02-05T10:10:03.000Z,78.30
2018-02-05T10:12:30.509Z,77.90
2018-02-05T10:14:58.048Z,77.70
2018-02-05T10:17:25.560Z,78.00
2018-02-05T10:19:53.077Z,78.20
2018-02-05T10:22:20.596Z,77.80
2018-02-05T10:24:48.897Z,78.00
2018-02-05T10:27:16.416Z,78.00
2018-02-05T10:29:43.916Z,77.70
2018-02-05T10:32:11.432Z,77.50
2018-02-05T10:34:38.940Z,77.70
2018-02-05T10:37:06.450Z,77.60
2018-02-05T10:39:34.000Z,77.90
2018-02-05T10:42:01.516Z,78.00
2018-02-05T10:44:29.016Z,77.70
2018-02-05T10:46:56.540Z,77.60
2018-02-05T10:49:24.064Z,77.70
2018-02-05T10:51:52.336Z,76.30
2018-02-05T10:54:20.620Z,77.00
2018-02-05T10:56:48.890Z,76.90
2018-02-05T10:59:17.192Z,77.00
2018-02-05T11:01:44.711Z,77.00
2018-02-05T11:04:12.254Z,77.40
2018-02-05T11:06:39.773Z,77.20
2018-02-05T11:09:07.315Z,77.20
2018-02-05T11:11:34.832Z,76.60
2018-02-05T11:14:02.366Z,77.30
2018-02-05T11:16:29.880Z,76.70
2018-02-05T11:18:57.380Z,76.80
2018-02-05T11:21:24.884Z,76.00
2018-02-05T11:23:52.396Z,76.70
2018-02-05T11:26:19.892Z,76.10
2018-02-05T11:28:47.397Z,75.90
2018-02-05T11:31:14.932Z,75.90
2018-02-05T11:33:43.201Z,75.70
2018-02-05T11:36:11.489Z,75.20
2018-02-05T11:38:39.767Z,74.90
2018-02-05T11:41:08.031Z,75.50
2018-02-05T11:43:36.300Z,74.20
2018-02-05T11:46:03.828Z,74.00
2018-02-05T11:48:31.346Z,73.30
2018-02-05T11:50:58.851Z,72.30
2018-02-05T11:53:26.416Z,72.00
2018-02-05T11:55:53.914Z,72.00
2018-02-05T11:58:21.416Z,70.50
2018-02-05T12:00:48.943Z,69.90
2018-02-05T12:03:16.456Z,69.60
2018-02-05T12:05:43.947Z,69.00
2018-02-05T12:08:11.466Z,63.80
2018-02-05T12:10:38.964Z,64.30
2018-02-05T12:13:07.240Z,59.80
2018-02-05T12:15:35.512Z,60.90
2018-02-05T12:18:03.780Z,60.20
2018-02-05T12:20:32.064Z,60.20
2018-02-05T12:23:00.483Z,59.70
2018-02-05T12:25:28.002Z,59.60
2018-02-05T12:27:56.272Z,60.50
2018-02-05T12:30:24.556Z,60.90
2018-02-05T12:32:52.834Z,58.90
2018-02-05T12:35:21.104Z,59.50
2018-02-05T12:37:49.398Z,58.40
2018-02-05T12:40:16.892Z,58.40
2018-02-05T12:42:44.404Z,58.40
2018-02-05T12:45:11.936Z,57.30
2018-02-05T12:47:39.432Z,56.60
2018-02-05T12:50:06.936Z,56.50
2018-02-05T12:52:34.444Z,57.20
2018-02-05T12:55:02.716Z,57.10
2018-02-05T12:57:30.982Z,57.20
2018-02-05T13:00:10.380Z,57.10
2018-02-05T13:02:38.460Z,57.90
2018-02-05T13:05:20.852Z,58.30
2018-02-05T13:07:48.372Z,59.10
2018-02-05T13:10:15.883Z,59.60
2018-02-05T13:12:43.400Z,59.70
2018-02-05T13:15:10.892Z,57.90
2018-02-05T13:17:38.396Z,56.30
2018-02-05T13:20:05.926Z,56.20
2018-02-05T13:22:33.421Z,56.70
2018-02-05T13:25:00.948Z,57.90
2018-02-05T13:27:28.466Z,58.50
2018-02-05T13:29:55.960Z,58.00
2018-02-05T13:32:23.451Z,58.50
2018-02-05T13:34:51.724Z,57.40
2018-02-05T13:37:19.236Z,57.80
2018-02-05T13:39:46.755Z,57.90
2018-02-05T13:42:14.264Z,58.40
2018-02-05T13:44:41.780Z,58.90
2018-02-05T13:47:09.288Z,59.10
2018-02-05T13:49:36.811Z,59.60
2018-02-05T13:52:04.312Z,60.00
2018-02-05T13:54:31.820Z,60.70
2018-02-05T13:56:59.324Z,61.30
2018-02-05T13:59:26.824Z,61.00
2018-02-05T14:01:54.346Z,61.30
2018-02-05T14:04:21.878Z,61.00
2018-02-05T14:06:49.379Z,60.90
2018-02-05T14:09:17.676Z,60.50
2018-02-05T14:11:45.196Z,60.30
2018-02-05T14:14:12.708Z,60.00
2018-02-05T14:16:40.216Z,60.00
2018-02-05T14:19:07.757Z,60.30
2018-02-05T14:21:35.270Z,59.80
2018-02-05T14:24:02.783Z,60.00
2018-02-05T14:26:30.292Z,60.10
2018-02-05T14:28:57.796Z,59.60
2018-02-05T14:31:25.300Z,59.50
2018-02-05T14:33:52.839Z,59.30
2018-02-05T14:36:20.339Z,60.40
2018-02-05T14:38:47.844Z,60.40
2018-02-05T14:41:15.386Z,61.10
2018-02-05T14:43:42.894Z,61.30
2018-02-05T14:46:10.404Z,61.40
2018-02-05T14:48:37.936Z,61.30
2018-02-05T14:51:05.447Z,62.00
2018-02-05T14:53:32.988Z,62.10
2018-02-05T14:56:00.533Z,62.30
2018-02-05T14:58:28.046Z,62.40
2018-02-05T15:00:55.543Z,62.70
2018-02-05T15:03:23.068Z,62.70
2018-02-05T15:05:50.572Z,62.20
2018-02-05T15:08:18.083Z,62.40
2018-02-05T15:10:45.605Z,62.60
2018-02-05T15:13:13.120Z,62.00
2018-02-05T15:15:40.636Z,62.10
2018-02-05T15:18:08.916Z,63.10
2018-02-05T15:20:37.203Z,63.10
2018-02-05T15:23:04.708Z,63.10
2018-02-05T15:25:32.242Z,62.80
2018-02-05T15:27:59.749Z,63.10
2018-02-05T15:30:27.266Z,63.10
2018-02-05T15:32:54.791Z,62.90
2018-02-05T15:35:22.305Z,63.00
2018-02-05T15:37:49.821Z,63.50
2018-02-05T15:40:17.338Z,64.20
2018-02-05T15:42:44.867Z,64.10
2018-02-05T15:45:12.368Z,65.00
2018-02-05T15:47:39.886Z,65.20
2018-02-05T15:50:07.436Z,65.30
2018-02-05T15:52:35.699Z,64.90
2018-02-05T15:55:03.988Z,64.70
2018-02-05T15:57:31.504Z,64.60
2018-02-05T15:59:59.775Z,64.80
2018-02-05T16:02:27.325Z,64.80
2018-02-05T16:04:54.840Z,65.10
2018-02-05T16:07:22.343Z,65.00
2018-02-05T16:09:49.875Z,65.30
2018-02-05T16:12:17.387Z,65.00
2018-02-05T16:14:44.913Z,65.50
2018-02-05T16:17:12.425Z,65.40
2018-02-05T16:19:39.933Z,65.40
2018-02-05T16:22:07.480Z,65.30
2018-02-05T16:24:35.010Z,65.70
2018-02-05T16:27:02.544Z,65.70
2018-02-05T16:29:30.064Z,65.40
2018-02-05T16:31:57.575Z,65.20
2018-02-05T16:34:25.105Z,65.50
2018-02-05T16:36:53.392Z,66.30
2018-02-05T16:39:20.972Z,66.20
2018-02-05T16:41:48.499Z,65.80
2018-02-05T16:44:16.794Z,65.80
2018-02-05T16:46:44.311Z,65.80
2018-02-05T16:49:11.834Z,66.10
2018-02-05T16:51:39.387Z,66.10
2018-02-05T16:54:06.922Z,66.50
2018-02-05T16:56:34.438Z,66.50
2018-02-05T16:59:01.942Z,66.80
2018-02-05T17:01:29.471Z,66.80
2018-02-05T17:03:56.976Z,67.20
2018-02-05T17:06:24.501Z,67.10
2018-02-05T17:08:52.855Z,67.90
2018-02-05T17:11:20.391Z,67.10
2018-02-05T17:13:47.961Z,67.10
2018-02-05T17:16:15.489Z,67.40
2018-02-05T17:18:43.001Z,67.90
2018-02-05T17:21:10.538Z,67.60
2018-02-05T17:23:38.091Z,68.30
2018-02-05T17:26:05.612Z,67.50
2018-02-05T17:28:33.168Z,68.00
2018-02-05T17:31:00.695Z,68.00
2018-02-05T17:33:28.211Z,68.00
2018-02-05T17:35:55.727Z,68.50
2018-02-05T17:38:23.341Z,68.90
2018-02-05T17:40:50.901Z,68.70
2018-02-05T17:43:19.202Z,68.70
2018-02-05T17:45:46.727Z,68.90
2018-02-05T17:48:14.255Z,69.70
2018-02-05T17:50:41.805Z,69.90
2018-02-05T17:53:10.107Z,69.40
2018-02-05T17:55:37.619Z,69.40
2018-02-05T17:58:05.132Z,69.20
2018-02-05T18:00:32.761Z,69.30
2018-02-05T18:03:01.077Z,69.60
2018-02-05T18:05:28.609Z,69.60
2018-02-05T18:07:56.151Z,69.50
2018-02-05T18:10:23.674Z,69.50
2018-02-05T18:12:51.196Z,70.00
2018-02-05T18:15:18.723Z,70.10
2018-02-05T18:17:46.249Z,70.10
2018-02-05T18:20:13.807Z,70.00
2018-02-05T18:22:41.335Z,70.50
2018-02-05T18:25:08.859Z,69.70
2018-02-05T18:27:36.397Z,69.70
2018-02-05T18:30:03.908Z,69.80
2018-02-05T18:32:31.421Z,69.80
2018-02-05T18:34:59.002Z,70.00
2018-02-05T18:37:26.557Z,70.10
2018-02-05T18:39:54.835Z,70.30
2018-02-05T18:42:23.120Z,70.10
2018-02-05T18:44:51.417Z,69.70
2018-02-05T18:47:18.947Z,69.60
2018-02-05T18:49:46.491Z,69.50
2018-02-05T18:52:14.055Z,69.40
2018-02-05T18:54:41.579Z,69.20
2018-02-05T18:57:09.095Z,69.30
2018-02-05T18:59:36.639Z,68.60
2018-02-05T19:02:16.000Z,68.60
2018-02-05T19:04:43.530Z,68.50
2018-02-05T19:07:11.819Z,69.30
2018-02-05T19:09:40.112Z,68.70
2018-02-05T19:12:07.629Z,68.50
2018-02-05T19:14:35.136Z,68.60
2018-02-05T19:17:02.657Z,68.50
2018-02-05T19:19:30.184Z,68.00
2018-02-05T19:21:57.735Z,67.50
2018-02-05T19:24:25.281Z,67.60
2018-02-05T19:26:53.571Z,68.00
2018-02-05T19:29:21.108Z,67.90
2018-02-05T19:31:48.629Z,67.60
2018-02-05T19:34:16.205Z,67.90
2018-02-05T19:36:43.725Z,67.90
2018-02-05T19:39:11.254Z,68.10
2018-02-05T19:41:38.799Z,68.40
2018-02-05T19:44:06.329Z,68.00
2018-02-05T19:46:33.839Z,67.60
2018-02-05T19:49:01.385Z,67.60
2018-02-05T19:51:28.894Z,67.90
2018-02-05T19:53:56.407Z,67.90
2018-02-05T19:56:23.942Z,68.60
2018-02-05T19:58:51.443Z,69.10
2018-02-05T20:01:18.961Z,69.00
2018-02-05T20:03:46.491Z,69.20
2018-02-05T20:06:14.015Z,69.00
2018-02-05T20:08:41.519Z,68.80
2018-02-05T20:11:09.057Z,68.40
2018-02-05T20:13:36.559Z,68.80
2018-02-05T20:16:04.080Z,68.90
2018-02-05T20:18:31.604Z,68.10
2018-02-05T20:20:59.178Z,67.30
2018-02-05T20:23:26.664Z,67.10
2018-02-05T20:25:54.203Z,66.70
2018-02-05T20:28:21.733Z,67.00
2018-02-05T20:30:49.247Z,66.80
2018-02-05T20:33:17.543Z,65.50
2018-02-05T20:35:45.843Z,65.20
2018-02-05T20:38:13.371Z,65.20
2018-02-05T20:40:40.944Z,64.90
2018-02-05T20:43:08.480Z,65.30
2018-02-05T20:45:36.001Z,64.40
2018-02-05T20:48:03.507Z,64.00
2018-02-05T20:50:31.785Z,65.60
2018-02-05T20:53:00.064Z,65.10
2018-02-05T20:55:28.359Z,64.20
2018-02-05T20:57:55.861Z,64.20
2018-02-05T21:00:23.371Z,64.30
2018-02-05T21:02:50.891Z,64.60
2018-02-05T21:05:18.409Z,65.90
2018-02-05T21:07:45.923Z,66.00
2018-02-05T21:10:14.208Z,66.10
2018-02-05T21:12:41.732Z,66.10
2018-02-05T21:15:09.235Z,66.80
2018-02-05T21:17:36.766Z,66.30
2018-02-05T21:20:04.263Z,66.30
2018-02-05T21:22:31.774Z,65.70
2018-02-05T21:24:59.294Z,65.90
2018-02-05T21:27:26.805Z,66.60
2018-02-05T21:29:55.077Z,67.20
2018-02-05T21:32:23.361Z,67.30
2018-02-05T21:34:50.864Z,67.30
2018-02-05T21:37:18.375Z,67.30
2018-02-05T21:39:46.682Z,67.70
2018-02-05T21:42:14.175Z,68.10
2018-02-05T21:44:41.675Z,68.00
2018-02-05T21:47:09.951Z,68.50
2018-02-05T21:49:37.467Z,68.50
2018-02-05T21:52:04.959Z,68.80
2018-02-05T21:54:32.487Z,70.10
2018-02-05T21:56:59.993Z,69.20
2018-02-05T21:59:27.507Z,68.50
2018-02-05T22:01:55.025Z,68.30
2018-02-05T22:04:22.543Z,69.10
2018-02-05T22:06:50.059Z,70.30
2018-02-05T22:09:17.591Z,69.20
2018-02-05T22:11:45.898Z,69.20
2018-02-05T22:14:13.416Z,69.10
2018-02-05T22:16:40.931Z,68.70
2018-02-05T22:19:08.451Z,68.90
2018-02-05T22:21:35.961Z,68.40
2018-02-05T22:24:03.467Z,68.40
2018-02-05T22:26:30.990Z,69.40
2018-02-05T22:28:58.495Z,68.40
2018-02-05T22:31:26.009Z,68.30
2018-02-05T22:33:53.519Z,67.90
2018-02-05T22:36:21.047Z,68.90
2018-02-05T22:38:48.572Z,68.70
2018-02-05T22:41:16.075Z,68.20
2018-02-05T22:43:43.601Z,68.40
2018-02-05T22:46:11.133Z,68.80
2018-02-05T22:48:38.647Z,69.40
2018-02-05T22:51:06.169Z,69.30
2018-02-05T22:53:33.691Z,69.10
2018-02-05T22:56:01.201Z,68.00
2018-02-05T22:58:28.717Z,68.20
2018-02-05T23:00:56.263Z,68.80
2018-02-05T23:03:23.776Z,70.10
2018-02-05T23:05:51.275Z,69.70
2018-02-05T23:08:18.803Z,69.80
2018-02-05T23:10:47.083Z,70.00
2018-02-05T23:13:15.355Z,70.00
2018-02-05T23:15:43.650Z,70.00
2018-02-05T23:18:11.171Z,70.60
2018-02-05T23:20:38.683Z,69.90
2018-02-05T23:23:06.218Z,69.50
2018-02-05T23:25:34.495Z,70.00
2018-02-05T23:28:02.041Z,70.00
2018-02-05T23:30:29.555Z,70.90
2018-02-05T23:32:57.067Z,70.50
2018-02-05T23:35:25.343Z,70.30
2018-02-05T23:37:53.615Z,70.50
2018-02-05T23:40:21.885Z,70.20
2018-02-05T23:42:49.409Z,70.20
2018-02-05T23:45:16.945Z,70.00
2018-02-05T23:47:44.467Z,69.70
2018-02-05T23:50:12.741Z,70.50
2018-02-05T23:52:40.249Z,70.40
2018-02-05T23:55:07.767Z,70.80
2018-02-05T23:57:36.043Z,70.40
